Time;durP1;ratioP1;P1;durP2;ratioP2;P2;SDS_P1;SDS_P2;PMS_P1;PMS_P2;Temp;Humidity;BMP_temperature;BMP_pressure;BME280_temperature;BME280_humidity;BME280_pressure;Samples;Min_cycle;Max_cycle;Signal;HPM_P1;HPM_P2
2022/10/16 00:02:21;;;;;;;;;;;12.60;99.90;;;;;;5013809;28;19929;-66
2022/10/16 00:04:48;;;;;;;;;;;12.60;99.90;;;;;;5017183;28;20407;-67
2022/10/16 00:07:15;;;;;;;;;;;12.50;99.90;;;;;;5016160;28;19935;-68
2022/10/16 00:09:41;;;;;;;;;;;12.60;99.90;;;;;;5009457;28;19984;-66
2022/10/16 00:12:08;;;;;;;;;;;12.60;99.90;;;;;;5017794;28;19926;-68
2022/10/16 00:14:35;;;;;;;;;;;12.70;99.90;;;;;;5012526;28;20012;-70
2022/10/16 00:17:02;;;;;;;;;;;12.70;99.90;;;;;;5016158;28;19967;-67
2022/10/16 00:19:28;;;;;;;;;;;12.70;99.90;;;;;;5015084;28;19932;-66
2022/10/16 00:21:55;;;;;;;;;;;12.70;99.90;;;;;;5013643;28;20491;-67
2022/10/16 00:24:22;;;;;;;;;;;12.70;99.90;;;;;;5006998;28;19957;-71
2022/10/16 00:26:49;;;;;;;;;;;12.80;99.90;;;;;;5015099;28;19925;-70
2022/10/16 00:29:16;;;;;;;;;;;12.80;99.90;;;;;;5012835;28;19964;-67
2022/10/16 00:31:42;;;;;;;;;;;12.80;99.90;;;;;;5013816;28;20035;-74
2022/10/16 00:34:09;;;;;;;;;;;12.80;99.90;;;;;;5019256;28;19952;-66
2022/10/16 00:36:36;;;;;;;;;;;12.80;99.90;;;;;;5024216;28;19947;-68
2022/10/16 00:39:03;;;;;;;;;;;12.80;99.90;;;;;;5006443;28;20396;-73
2022/10/16 00:41:30;;;;;;;;;;;12.80;99.90;;;;;;5019104;28;19933;-67
2022/10/16 00:43:57;;;;;;;;;;;12.80;99.90;;;;;;5010170;28;20397;-66
2022/10/16 00:46:27;;;;;;;;;;;12.70;99.90;;;;;;5016673;28;20199;-70
2022/10/16 00:49:01;;;;;;;;;;;12.70;99.90;;;;;;5018910;28;20393;-69
2022/10/16 00:51:30;;;;;;;;;;;12.70;99.90;;;;;;5014176;28;19987;-66
2022/10/16 00:53:57;;;;;;;;;;;12.70;99.90;;;;;;5014027;28;19929;-69
2022/10/16 00:56:24;;;;;;;;;;;12.70;99.90;;;;;;5016277;28;19936;-68
2022/10/16 00:58:51;;;;;;;;;;;12.70;99.90;;;;;;5011941;28;19929;-67
2022/10/16 01:01:18;;;;;;;;;;;12.70;99.90;;;;;;5015210;28;19931;-70
2022/10/16 01:03:45;;;;;;;;;;;12.80;99.90;;;;;;5011358;28;19930;-67
2022/10/16 01:06:19;;;;;;;;;;;12.70;99.90;;;;;;5018351;28;19925;-68
2022/10/16 01:09:08;;;;;;;;;;;12.70;99.90;;;;;;5011954;28;19929;-68
2022/10/16 01:11:43;;;;;;;;;;;12.70;99.90;;;;;;5015668;28;20371;-76
2022/10/16 01:14:34;;;;;;;;;;;12.70;99.90;;;;;;5013197;28;19949;-69
2022/10/16 01:17:17;;;;;;;;;;;12.70;99.90;;;;;;5012108;28;19984;-69
2022/10/16 01:19:44;;;;;;;;;;;12.70;99.90;;;;;;5014759;28;20021;-70
2022/10/16 01:22:12;;;;;;;;;;;12.70;99.90;;;;;;5010797;28;19934;-74
2022/10/16 01:24:40;;;;;;;;;;;12.70;99.90;;;;;;5011375;28;19992;-68
2022/10/16 01:27:25;;;;;;;;;;;12.80;99.90;;;;;;5014195;28;19929;-71
2022/10/16 01:30:09;;;;;;;;;;;12.80;99.90;;;;;;5017759;28;20624;-70
2022/10/16 01:32:38;;;;;;;;;;;12.80;99.90;;;;;;5018613;28;19932;-66
2022/10/16 01:35:07;;;;;;;;;;;12.80;99.90;;;;;;5012571;28;19951;-70
2022/10/16 01:37:42;;;;;;;;;;;12.80;99.90;;;;;;5022790;28;19956;-70
2022/10/16 01:40:10;;;;;;;;;;;12.80;99.90;;;;;;5020609;28;20037;-68
2022/10/16 01:42:40;;;;;;;;;;;12.80;99.90;;;;;;5016903;28;20651;-66
2022/10/16 01:45:08;;;;;;;;;;;12.80;99.90;;;;;;5022006;28;20093;-68
2022/10/16 01:47:35;;;;;;;;;;;12.80;99.90;;;;;;5023289;28;19936;-67
2022/10/16 01:50:04;;;;;;;;;;;12.90;99.90;;;;;;5018895;28;20024;-66
2022/10/16 01:52:33;;;;;;;;;;;12.80;99.90;;;;;;5023036;28;20017;-67
2022/10/16 01:55:02;;;;;;;;;;;12.80;99.90;;;;;;5013434;28;19948;-67
2022/10/16 01:57:29;;;;;;;;;;;12.90;99.90;;;;;;5023512;28;20299;-68
2022/10/16 01:59:58;;;;;;;;;;;12.80;99.90;;;;;;5018680;28;19944;-68
2022/10/16 02:02:26;;;;;;;;;;;12.90;99.90;;;;;;5021873;28;20004;-70
2022/10/16 02:05:01;;;;;;;;;;;12.90;99.90;;;;;;5013854;28;20633;-68
2022/10/16 02:07:28;;;;;;;;;;;12.90;99.90;;;;;;5019617;28;19995;-67
2022/10/16 02:09:55;;;;;;;;;;;12.90;99.90;;;;;;5018033;28;20511;-67
2022/10/16 02:12:30;;;;;;;;;;;12.90;99.90;;;;;;5018562;28;20016;-68
2022/10/16 02:14:57;;;;;;;;;;;12.90;99.90;;;;;;5019538;28;19940;-68
2022/10/16 02:17:24;;;;;;;;;;;12.90;99.90;;;;;;5013803;28;19953;-67
2022/10/16 02:19:53;;;;;;;;;;;12.90;99.90;;;;;;5017828;28;19994;-67
2022/10/16 02:22:29;;;;;;;;;;;12.90;99.90;;;;;;5016170;28;19929;-67
2022/10/16 02:25:02;;;;;;;;;;;12.90;99.90;;;;;;5021978;28;20392;-67
2022/10/16 02:27:40;;;;;;;;;;;12.90;99.90;;;;;;5018457;28;20307;-66
2022/10/16 02:30:16;;;;;;;;;;;12.90;99.90;;;;;;5015675;28;20342;-69
2022/10/16 02:32:44;;;;;;;;;;;13.00;99.90;;;;;;5021383;28;19925;-71
2022/10/16 02:35:11;;;;;;;;;;;12.90;99.90;;;;;;5014111;28;19936;-67
2022/10/16 02:37:38;;;;;;;;;;;13.00;99.90;;;;;;5021975;28;19943;-66
2022/10/16 02:40:07;;;;;;;;;;;13.00;99.90;;;;;;5019171;28;19968;-68
2022/10/16 02:42:35;;;;;;;;;;;13.00;99.90;;;;;;5018154;28;19926;-66
2022/10/16 02:45:03;;;;;;;;;;;13.00;99.90;;;;;;5021076;28;19931;-66
2022/10/16 02:47:30;;;;;;;;;;;13.00;99.90;;;;;;5017145;28;20344;-68
2022/10/16 02:49:57;;;;;;;;;;;13.00;99.90;;;;;;5013410;28;19926;-67
2022/10/16 02:52:23;;;;;;;;;;;13.00;99.90;;;;;;5021706;28;19929;-67
2022/10/16 02:54:51;;;;;;;;;;;13.00;99.90;;;;;;5017083;28;20324;-69
2022/10/16 02:57:18;;;;;;;;;;;13.00;99.90;;;;;;5011892;28;19929;-69
2022/10/16 02:59:45;;;;;;;;;;;13.00;99.90;;;;;;5015069;28;19936;-67
2022/10/16 03:02:12;;;;;;;;;;;13.00;99.90;;;;;;5022549;28;19939;-69
2022/10/16 03:04:39;;;;;;;;;;;13.00;99.90;;;;;;5012915;28;19952;-68
2022/10/16 03:07:06;;;;;;;;;;;13.00;99.90;;;;;;5016738;28;19928;-68
2022/10/16 03:09:33;;;;;;;;;;;13.00;99.90;;;;;;5014824;28;19936;-67
2022/10/16 03:12:00;;;;;;;;;;;13.00;99.90;;;;;;5014808;28;20339;-70
2022/10/16 03:14:27;;;;;;;;;;;13.00;99.90;;;;;;5017182;28;19925;-67
2022/10/16 03:16:58;;;;;;;;;;;13.00;99.90;;;;;;5016837;28;19955;-66
2022/10/16 03:19:25;;;;;;;;;;;13.00;99.90;;;;;;5018662;28;19933;-66
2022/10/16 03:21:52;;;;;;;;;;;13.00;99.90;;;;;;5016017;28;19940;-67
2022/10/16 03:24:19;;;;;;;;;;;13.00;99.90;;;;;;5014164;28;19929;-69
2022/10/16 03:26:45;;;;;;;;;;;13.00;99.90;;;;;;5014308;28;20274;-67
2022/10/16 03:29:12;;;;;;;;;;;13.00;99.90;;;;;;5014796;28;19928;-66
2022/10/16 03:31:39;;;;;;;;;;;13.00;99.90;;;;;;5017130;28;19976;-68
2022/10/16 03:34:06;;;;;;;;;;;13.00;99.90;;;;;;5020021;28;19936;-68
2022/10/16 03:36:33;;;;;;;;;;;13.00;99.90;;;;;;5013113;28;19972;-67
2022/10/16 03:38:59;;;;;;;;;;;13.00;99.90;;;;;;5017449;28;19944;-71
2022/10/16 03:41:26;;;;;;;;;;;13.00;99.90;;;;;;5013221;28;19925;-68
2022/10/16 03:43:53;;;;;;;;;;;13.00;99.90;;;;;;5013943;28;19933;-69
2022/10/16 03:46:20;;;;;;;;;;;12.90;99.90;;;;;;5013384;28;19929;-67
2022/10/16 03:48:47;;;;;;;;;;;13.00;99.90;;;;;;5013289;28;19929;-67
2022/10/16 03:51:13;;;;;;;;;;;12.90;99.90;;;;;;5014170;28;20037;-68
2022/10/16 03:53:40;;;;;;;;;;;13.00;99.90;;;;;;5015044;28;19925;-67
2022/10/16 03:56:07;;;;;;;;;;;13.00;99.90;;;;;;5012857;28;19973;-68
2022/10/16 03:58:34;;;;;;;;;;;13.00;99.90;;;;;;5010935;28;20036;-66
2022/10/16 04:01:00;;;;;;;;;;;13.00;99.90;;;;;;5008409;28;19930;-67
2022/10/16 04:03:27;;;;;;;;;;;13.00;99.90;;;;;;5017072;28;19959;-68
2022/10/16 04:05:54;;;;;;;;;;;13.00;99.90;;;;;;5011347;28;19929;-70
2022/10/16 04:08:21;;;;;;;;;;;13.00;99.90;;;;;;5014252;28;19936;-67
2022/10/16 04:10:48;;;;;;;;;;;13.00;99.90;;;;;;5014001;28;19930;-69
2022/10/16 04:13:15;;;;;;;;;;;13.00;99.90;;;;;;5016107;28;19940;-71
2022/10/16 04:15:44;;;;;;;;;;;13.00;99.90;;;;;;5017178;28;19936;-67
2022/10/16 04:18:11;;;;;;;;;;;13.00;99.90;;;;;;5016688;28;19925;-69
2022/10/16 04:20:38;;;;;;;;;;;13.00;99.90;;;;;;5016561;28;19994;-67
2022/10/16 04:23:05;;;;;;;;;;;13.00;99.90;;;;;;5018333;28;20044;-68
2022/10/16 04:25:32;;;;;;;;;;;13.00;99.90;;;;;;5008754;28;19976;-67
2022/10/16 04:27:58;;;;;;;;;;;13.00;99.90;;;;;;5010988;28;20032;-69
2022/10/16 04:30:25;;;;;;;;;;;13.00;99.90;;;;;;5017476;28;19984;-69
2022/10/16 04:32:52;;;;;;;;;;;13.00;99.90;;;;;;5022960;28;19929;-68
2022/10/16 04:35:20;;;;;;;;;;;13.00;99.90;;;;;;5008066;28;19933;-67
2022/10/16 04:37:47;;;;;;;;;;;13.00;99.90;;;;;;5017421;28;19935;-68
2022/10/16 04:40:14;;;;;;;;;;;13.00;99.90;;;;;;5015279;28;20011;-67
2022/10/16 04:42:40;;;;;;;;;;;13.00;99.90;;;;;;5012228;28;20674;-67
2022/10/16 04:45:08;;;;;;;;;;;13.00;99.90;;;;;;5009022;28;19929;-71
2022/10/16 04:47:40;;;;;;;;;;;13.10;99.90;;;;;;5018706;28;19936;-67
2022/10/16 04:50:07;;;;;;;;;;;13.10;99.90;;;;;;5012332;28;19929;-71
2022/10/16 04:52:34;;;;;;;;;;;13.10;99.90;;;;;;5013309;28;20008;-66
2022/10/16 04:55:06;;;;;;;;;;;13.10;99.90;;;;;;5013255;28;19952;-72
2022/10/16 04:57:33;;;;;;;;;;;13.10;99.90;;;;;;5011765;28;19929;-68
2022/10/16 05:00:00;;;;;;;;;;;13.10;99.90;;;;;;5013760;28;20364;-71
2022/10/16 05:02:26;;;;;;;;;;;13.10;99.90;;;;;;5015196;28;20299;-66
2022/10/16 05:04:53;;;;;;;;;;;13.10;99.90;;;;;;5013005;28;19935;-67
2022/10/16 05:07:20;;;;;;;;;;;13.20;99.90;;;;;;5010302;28;19930;-68
2022/10/16 05:09:47;;;;;;;;;;;13.20;99.90;;;;;;5011699;28;19926;-72
2022/10/16 05:12:14;;;;;;;;;;;13.20;99.90;;;;;;5014451;28;19925;-68
2022/10/16 05:14:40;;;;;;;;;;;13.20;99.90;;;;;;5014717;28;20274;-68
2022/10/16 05:17:07;;;;;;;;;;;13.20;99.90;;;;;;5012484;28;20032;-67
2022/10/16 05:19:34;;;;;;;;;;;13.20;99.90;;;;;;5015866;28;20091;-67
2022/10/16 05:22:01;;;;;;;;;;;13.20;99.90;;;;;;5010130;28;19929;-69
2022/10/16 05:24:28;;;;;;;;;;;13.30;99.90;;;;;;5015535;28;20094;-67
2022/10/16 05:26:55;;;;;;;;;;;13.20;99.90;;;;;;5009754;28;20052;-69
2022/10/16 05:29:22;;;;;;;;;;;13.30;99.90;;;;;;5009666;28;19948;-68
2022/10/16 05:31:52;;;;;;;;;;;13.30;99.90;;;;;;5022585;28;20208;-68
2022/10/16 05:34:20;;;;;;;;;;;13.40;99.90;;;;;;5016287;28;19929;-69
2022/10/16 05:36:47;;;;;;;;;;;13.40;99.90;;;;;;5015988;28;20066;-70
2022/10/16 05:39:14;;;;;;;;;;;13.40;99.90;;;;;;5013619;28;20405;-68
2022/10/16 05:41:41;;;;;;;;;;;13.40;99.90;;;;;;5013405;28;19937;-67
2022/10/16 05:44:08;;;;;;;;;;;13.40;99.90;;;;;;5010391;28;19932;-68
2022/10/16 05:46:35;;;;;;;;;;;13.50;99.90;;;;;;5007980;28;19929;-67
2022/10/16 05:49:01;;;;;;;;;;;13.50;99.90;;;;;;5014397;28;19975;-66
2022/10/16 05:51:28;;;;;;;;;;;13.50;99.90;;;;;;5008847;28;19972;-67
2022/10/16 05:53:55;;;;;;;;;;;13.50;99.90;;;;;;5016924;28;19975;-67
2022/10/16 05:56:22;;;;;;;;;;;13.50;99.90;;;;;;5012242;28;19936;-67
2022/10/16 05:58:49;;;;;;;;;;;13.50;99.90;;;;;;5017966;28;19980;-68
2022/10/16 06:01:17;;;;;;;;;;;13.50;99.90;;;;;;5011465;28;19995;-73
2022/10/16 06:03:44;;;;;;;;;;;13.60;99.90;;;;;;5007571;28;19933;-67
2022/10/16 06:06:15;;;;;;;;;;;13.60;99.90;;;;;;5030021;28;19937;-68
2022/10/16 06:08:42;;;;;;;;;;;13.60;99.90;;;;;;5013336;28;20302;-68
2022/10/16 06:11:11;;;;;;;;;;;13.60;99.90;;;;;;5010611;28;19926;-66
2022/10/16 06:13:38;;;;;;;;;;;13.60;99.90;;;;;;5014036;28;19929;-67
2022/10/16 06:16:05;;;;;;;;;;;13.60;99.90;;;;;;5012296;28;20314;-67
2022/10/16 06:18:32;;;;;;;;;;;13.60;99.90;;;;;;5017448;28;19956;-68
2022/10/16 06:20:59;;;;;;;;;;;13.60;99.90;;;;;;5017776;28;19933;-67
2022/10/16 06:23:28;;;;;;;;;;;13.60;99.90;;;;;;5020712;28;19932;-73
2022/10/16 06:26:03;;;;;;;;;;;13.60;99.90;;;;;;5019512;28;19944;-69
2022/10/16 06:28:30;;;;;;;;;;;13.60;99.90;;;;;;5015973;28;20020;-69
2022/10/16 06:31:00;;;;;;;;;;;13.60;99.90;;;;;;5016965;28;19925;-66
2022/10/16 06:33:33;;;;;;;;;;;13.60;99.90;;;;;;5020997;28;19948;-66
2022/10/16 06:36:04;;;;;;;;;;;13.70;99.90;;;;;;5015960;28;20326;-72
2022/10/16 06:38:31;;;;;;;;;;;13.70;99.90;;;;;;5023574;28;19997;-67
2022/10/16 06:40:58;;;;;;;;;;;13.60;99.90;;;;;;5021163;28;19928;-68
2022/10/16 06:43:25;;;;;;;;;;;13.70;99.90;;;;;;5019511;28;19936;-69
2022/10/16 06:45:53;;;;;;;;;;;13.70;99.90;;;;;;5024574;28;20024;-73
2022/10/16 06:48:20;;;;;;;;;;;13.70;99.90;;;;;;5022784;28;20073;-67
2022/10/16 06:50:56;;;;;;;;;;;13.70;99.90;;;;;;5016489;28;20031;-69
2022/10/16 06:53:24;;;;;;;;;;;13.70;99.90;;;;;;5020969;28;20024;-67
2022/10/16 06:55:51;;;;;;;;;;;13.70;99.90;;;;;;5024541;28;19984;-69
2022/10/16 06:58:17;;;;;;;;;;;13.80;99.90;;;;;;5019705;28;20024;-66
2022/10/16 07:00:44;;;;;;;;;;;13.80;99.90;;;;;;5020868;28;19951;-67
2022/10/16 07:03:11;;;;;;;;;;;13.80;99.90;;;;;;5018056;28;20043;-72
2022/10/16 07:05:41;;;;;;;;;;;13.80;99.90;;;;;;5022679;28;20012;-67
2022/10/16 07:08:08;;;;;;;;;;;13.80;99.90;;;;;;5021326;28;19931;-68
2022/10/16 07:10:35;;;;;;;;;;;13.90;99.90;;;;;;5023974;28;19929;-67
2022/10/16 07:13:02;;;;;;;;;;;13.90;99.90;;;;;;5018008;28;20405;-67
2022/10/16 07:15:29;;;;;;;;;;;14.00;99.90;;;;;;5019539;28;19925;-69
2022/10/16 07:17:55;;;;;;;;;;;14.00;99.90;;;;;;5020748;28;19936;-67
2022/10/16 07:20:22;;;;;;;;;;;14.00;99.90;;;;;;5017638;28;19929;-67
2022/10/16 07:22:49;;;;;;;;;;;14.00;99.90;;;;;;5016151;28;19955;-68
2022/10/16 07:25:16;;;;;;;;;;;14.00;99.90;;;;;;5014655;28;20427;-66
2022/10/16 07:27:43;;;;;;;;;;;14.00;99.90;;;;;;5019278;28;20325;-67
2022/10/16 07:30:10;;;;;;;;;;;14.00;99.90;;;;;;5020388;28;20446;-70
2022/10/16 07:32:36;;;;;;;;;;;14.00;99.90;;;;;;5024504;28;20062;-69
2022/10/16 07:35:04;;;;;;;;;;;14.00;99.90;;;;;;5019243;28;20470;-68
2022/10/16 07:37:31;;;;;;;;;;;14.10;99.90;;;;;;5017640;28;19929;-68
2022/10/16 07:39:57;;;;;;;;;;;14.00;99.90;;;;;;5014781;28;20291;-68
2022/10/16 07:42:24;;;;;;;;;;;14.00;99.90;;;;;;5015569;28;19929;-68
2022/10/16 07:44:51;;;;;;;;;;;14.00;99.90;;;;;;5017102;28;19929;-76
2022/10/16 07:47:18;;;;;;;;;;;14.00;99.90;;;;;;5012501;28;19973;-67
2022/10/16 07:49:44;;;;;;;;;;;14.10;99.90;;;;;;5019466;28;20354;-69
2022/10/16 07:52:11;;;;;;;;;;;14.10;99.90;;;;;;5014529;28;19929;-71
2022/10/16 07:54:38;;;;;;;;;;;14.10;99.90;;;;;;5015954;28;19925;-67
2022/10/16 07:57:05;;;;;;;;;;;14.10;99.90;;;;;;5011787;28;19936;-71
2022/10/16 07:59:31;;;;;;;;;;;14.10;99.90;;;;;;5019861;28;19929;-69
2022/10/16 08:01:58;;;;;;;;;;;14.10;99.90;;;;;;5019657;28;19926;-68
2022/10/16 08:04:25;;;;;;;;;;;14.10;99.90;;;;;;5013986;28;19975;-67
2022/10/16 08:06:52;;;;;;;;;;;14.20;99.90;;;;;;5013099;28;19929;-72
2022/10/16 08:09:18;;;;;;;;;;;14.20;99.90;;;;;;5016854;28;19929;-70
2022/10/16 08:11:45;;;;;;;;;;;14.20;99.90;;;;;;5015678;28;19972;-70
2022/10/16 08:14:12;;;;;;;;;;;14.30;99.90;;;;;;5011373;28;20029;-69
2022/10/16 08:16:39;;;;;;;;;;;14.30;99.90;;;;;;5012039;28;19983;-68
2022/10/16 08:19:05;;;;;;;;;;;14.30;99.90;;;;;;5012079;28;19925;-70
2022/10/16 08:21:32;;;;;;;;;;;14.30;99.90;;;;;;5011142;28;19934;-67
2022/10/16 08:24:00;;;;;;;;;;;14.30;99.90;;;;;;5018654;28;19951;-68
2022/10/16 08:26:27;;;;;;;;;;;14.20;99.90;;;;;;5015552;28;19925;-68
2022/10/16 08:28:54;;;;;;;;;;;14.20;99.90;;;;;;5015477;28;20371;-68
2022/10/16 08:31:21;;;;;;;;;;;14.30;99.90;;;;;;5015771;28;20298;-69
2022/10/16 08:33:48;;;;;;;;;;;14.30;99.90;;;;;;5016445;28;20278;-68
2022/10/16 08:36:15;;;;;;;;;;;14.40;99.90;;;;;;5015373;28;20025;-70
2022/10/16 08:38:42;;;;;;;;;;;14.40;99.90;;;;;;5015363;28;20051;-70
2022/10/16 08:41:28;;;;;;;;;;;14.50;99.90;;;;;;5008383;28;19929;-68
2022/10/16 08:44:03;;;;;;;;;;;14.60;99.90;;;;;;5012682;28;19987;-68
2022/10/16 08:46:32;;;;;;;;;;;14.60;99.90;;;;;;5023486;28;20358;-70
2022/10/16 08:49:00;;;;;;;;;;;14.70;99.90;;;;;;5012465;28;19959;-77
2022/10/16 08:51:29;;;;;;;;;;;14.80;99.90;;;;;;5018979;28;19925;-67
2022/10/16 08:53:56;;;;;;;;;;;14.80;99.90;;;;;;5017959;28;19941;-67
2022/10/16 08:56:23;;;;;;;;;;;14.80;99.90;;;;;;5017685;28;19929;-67
2022/10/16 08:58:51;;;;;;;;;;;14.70;99.90;;;;;;5016834;28;20343;-69
2022/10/16 09:01:25;;;;;;;;;;;14.70;99.90;;;;;;5015872;28;19968;-69
2022/10/16 09:04:03;;;;;;;;;;;14.60;99.90;;;;;;5021493;28;19925;-70
2022/10/16 09:06:56;;;;;;;;;;;14.70;99.90;;;;;;5022330;28;19947;-71
2022/10/16 09:09:43;;;;;;;;;;;14.70;99.90;;;;;;5013273;28;20023;-68
2022/10/16 09:12:22;;;;;;;;;;;14.80;99.90;;;;;;5026294;28;19929;-68
2022/10/16 09:15:08;;;;;;;;;;;14.80;99.90;;;;;;5017082;28;20007;-71
2022/10/16 09:17:35;;;;;;;;;;;14.80;99.90;;;;;;5015594;28;19991;-69
2022/10/16 09:20:07;;;;;;;;;;;14.80;99.90;;;;;;5024748;28;20306;-67
2022/10/16 09:22:34;;;;;;;;;;;14.90;99.90;;;;;;5010890;28;19925;-72
2022/10/16 09:25:10;;;;;;;;;;;14.80;99.90;;;;;;5011876;28;19929;-67
2022/10/16 09:27:37;;;;;;;;;;;14.80;99.90;;;;;;5016521;28;19961;-67
2022/10/16 09:30:11;;;;;;;;;;;14.80;99.90;;;;;;5018111;28;19948;-68
2022/10/16 09:32:38;;;;;;;;;;;14.80;99.90;;;;;;5010924;28;20269;-67
2022/10/16 09:35:10;;;;;;;;;;;14.80;99.90;;;;;;5009957;28;19929;-68
2022/10/16 09:37:37;;;;;;;;;;;14.80;99.90;;;;;;5021864;28;19929;-69
2022/10/16 09:40:04;;;;;;;;;;;14.80;99.90;;;;;;5015875;28;20028;-70
2022/10/16 09:42:35;;;;;;;;;;;14.70;99.90;;;;;;5012150;28;20019;-71
2022/10/16 09:45:02;;;;;;;;;;;14.80;99.90;;;;;;5006501;28;20360;-68
2022/10/16 09:47:30;;;;;;;;;;;14.80;99.90;;;;;;5015435;28;20351;-68
2022/10/16 09:50:04;;;;;;;;;;;14.80;99.90;;;;;;5017046;28;19945;-68
2022/10/16 09:52:30;;;;;;;;;;;14.90;99.90;;;;;;5013036;28;19925;-67
2022/10/16 09:54:58;;;;;;;;;;;14.90;99.90;;;;;;5011623;28;19925;-68
2022/10/16 09:57:25;;;;;;;;;;;14.90;99.90;;;;;;5011800;28;19929;-67
2022/10/16 09:59:54;;;;;;;;;;;15.00;99.90;;;;;;5025288;28;20070;-68
2022/10/16 10:02:33;;;;;;;;;;;14.90;99.90;;;;;;5026785;28;20016;-67
2022/10/16 10:05:01;;;;;;;;;;;14.90;99.90;;;;;;5024723;28;20040;-69
2022/10/16 10:07:32;;;;;;;;;;;14.90;99.90;;;;;;5015006;28;20008;-71
2022/10/16 10:10:00;;;;;;;;;;;14.90;99.90;;;;;;5020307;28;19972;-69
2022/10/16 10:12:28;;;;;;;;;;;14.90;99.90;;;;;;5020714;28;20245;-68
2022/10/16 10:14:56;;;;;;;;;;;14.90;99.90;;;;;;5023479;28;19968;-69
2022/10/16 10:17:24;;;;;;;;;;;14.90;99.90;;;;;;5027832;28;20009;-67
2022/10/16 10:20:11;;;;;;;;;;;14.90;99.90;;;;;;5018174;28;19930;-70
2022/10/16 10:22:38;;;;;;;;;;;14.90;99.90;;;;;;4992992;28;19980;-67
2022/10/16 10:25:08;;;;;;;;;;;14.80;99.90;;;;;;5021395;28;19956;-71
2022/10/16 10:27:46;;;;;;;;;;;14.80;99.90;;;;;;5018443;28;19926;-68
2022/10/16 10:30:25;;;;;;;;;;;14.80;99.90;;;;;;5019806;28;19952;-67
2022/10/16 10:33:00;;;;;;;;;;;14.80;99.90;;;;;;5021129;28;20024;-68
2022/10/16 10:35:41;;;;;;;;;;;14.80;99.90;;;;;;5010721;28;19976;-73
2022/10/16 10:38:17;;;;;;;;;;;14.80;99.90;;;;;;5030299;28;19929;-70
2022/10/16 10:40:49;;;;;;;;;;;14.80;99.90;;;;;;5018201;28;19935;-67
2022/10/16 10:43:34;;;;;;;;;;;14.70;99.90;;;;;;5011744;28;20048;-69
2022/10/16 10:46:08;;;;;;;;;;;14.70;99.90;;;;;;5015916;28;19925;-70
2022/10/16 10:48:45;;;;;;;;;;;14.70;99.90;;;;;;5013127;28;19972;-69
2022/10/16 10:51:14;;;;;;;;;;;14.80;99.90;;;;;;5012577;28;20332;-69
2022/10/16 10:54:00;;;;;;;;;;;14.70;99.90;;;;;;5018130;28;20012;-70
2022/10/16 10:56:42;;;;;;;;;;;14.70;99.90;;;;;;5019046;28;19987;-67
2022/10/16 10:59:19;;;;;;;;;;;14.70;99.90;;;;;;5019660;28;19968;-67
2022/10/16 11:02:00;;;;;;;;;;;14.70;99.90;;;;;;5013892;28;19979;-71
2022/10/16 11:04:27;;;;;;;;;;;14.70;99.90;;;;;;5021359;28;19937;-69
2022/10/16 11:07:23;;;;;;;;;;;14.60;99.90;;;;;;5010990;28;20382;-68
2022/10/16 11:09:56;;;;;;;;;;;14.60;99.90;;;;;;5012213;28;20013;-69
2022/10/16 11:12:31;;;;;;;;;;;14.50;99.90;;;;;;5022150;28;20318;-70
2022/10/16 11:15:04;;;;;;;;;;;14.40;99.90;;;;;;5019561;28;19952;-67
2022/10/16 11:17:38;;;;;;;;;;;14.30;99.90;;;;;;5024060;28;19925;-67
2022/10/16 11:20:24;;;;;;;;;;;14.30;99.90;;;;;;5021494;28;19952;-69
2022/10/16 11:23:01;;;;;;;;;;;14.40;99.90;;;;;;5015883;28;20100;-71
2022/10/16 11:25:29;;;;;;;;;;;14.40;99.90;;;;;;5011905;28;19929;-68
2022/10/16 11:28:02;;;;;;;;;;;14.50;99.90;;;;;;5021842;28;20005;-67
2022/10/16 11:30:30;;;;;;;;;;;14.50;99.90;;;;;;5030492;28;20009;-75
2022/10/16 11:33:16;;;;;;;;;;;14.40;99.90;;;;;;5000004;28;19926;-67
2022/10/16 11:35:48;;;;;;;;;;;14.40;99.90;;;;;;5016812;28;19986;-69
2022/10/16 11:38:22;;;;;;;;;;;14.50;99.90;;;;;;5013607;28;19990;-73
2022/10/16 11:40:52;;;;;;;;;;;14.50;99.90;;;;;;5021412;28;19945;-70
2022/10/16 11:43:24;;;;;;;;;;;14.50;99.90;;;;;;5018037;28;20042;-66
2022/10/16 11:45:55;;;;;;;;;;;14.60;99.90;;;;;;5019104;28;20379;-67
2022/10/16 11:48:35;;;;;;;;;;;14.50;99.90;;;;;;5016496;28;19980;-66
2022/10/16 11:51:14;;;;;;;;;;;14.50;99.90;;;;;;5022686;28;19948;-68
2022/10/16 11:53:45;;;;;;;;;;;14.60;99.90;;;;;;5019722;28;19929;-69
2022/10/16 11:56:15;;;;;;;;;;;14.70;99.90;;;;;;5022109;28;19968;-68
2022/10/16 11:58:44;;;;;;;;;;;14.60;99.90;;;;;;5014706;28;19925;-66
2022/10/16 12:01:22;;;;;;;;;;;14.60;99.90;;;;;;5025118;28;20583;-67
2022/10/16 12:04:07;;;;;;;;;;;14.60;99.90;;;;;;5015338;28;19929;-67
2022/10/16 12:06:46;;;;;;;;;;;14.60;99.90;;;;;;5016324;28;19948;-72
2022/10/16 12:09:20;;;;;;;;;;;14.70;99.90;;;;;;5012375;28;20032;-68
2022/10/16 12:11:47;;;;;;;;;;;14.70;99.90;;;;;;5018501;28;20001;-69
2022/10/16 12:14:14;;;;;;;;;;;14.80;99.90;;;;;;5017855;28;20008;-66
2022/10/16 12:16:50;;;;;;;;;;;14.80;99.90;;;;;;5018868;28;20368;-68
2022/10/16 12:19:18;;;;;;;;;;;14.80;99.90;;;;;;5015250;28;19933;-66
2022/10/16 12:21:45;;;;;;;;;;;14.70;99.90;;;;;;5017510;28;20335;-65
2022/10/16 12:24:32;;;;;;;;;;;14.70;99.90;;;;;;5015062;28;19933;-67
2022/10/16 12:26:59;;;;;;;;;;;14.60;99.90;;;;;;5011274;28;20032;-71
2022/10/16 12:29:40;;;;;;;;;;;14.60;99.90;;;;;;5017324;28;19939;-69
2022/10/16 12:32:25;;;;;;;;;;;14.60;99.90;;;;;;5024680;28;19957;-70
2022/10/16 12:35:22;;;;;;;;;;;14.70;99.90;;;;;;5011174;28;20364;-71
2022/10/16 12:37:49;;;;;;;;;;;14.80;99.90;;;;;;5014457;28;19959;-73
2022/10/16 12:40:25;;;;;;;;;;;14.80;99.90;;;;;;5014695;28;19940;-76
2022/10/16 12:42:52;;;;;;;;;;;14.90;99.90;;;;;;5013014;28;20020;-67
2022/10/16 12:45:24;;;;;;;;;;;15.00;99.90;;;;;;5014203;28;19932;-68
2022/10/16 12:47:53;;;;;;;;;;;15.00;99.90;;;;;;5013385;28;20291;-67
2022/10/16 12:50:28;;;;;;;;;;;15.10;99.90;;;;;;5010572;28;19930;-68
2022/10/16 12:52:55;;;;;;;;;;;15.20;99.90;;;;;;5012247;28;20020;-70
2022/10/16 12:55:23;;;;;;;;;;;15.20;99.90;;;;;;5018361;28;19925;-67
2022/10/16 12:58:05;;;;;;;;;;;15.20;99.90;;;;;;5008144;28;19930;-69
2022/10/16 13:00:37;;;;;;;;;;;15.20;99.90;;;;;;5011449;28;20414;-71
2022/10/16 13:03:12;;;;;;;;;;;15.10;99.90;;;;;;5006476;28;19936;-68
2022/10/16 13:05:45;;;;;;;;;;;15.10;99.90;;;;;;5015747;28;19995;-70
2022/10/16 13:08:27;;;;;;;;;;;15.00;99.90;;;;;;5013701;28;20036;-72
2022/10/16 13:11:09;;;;;;;;;;;15.10;99.90;;;;;;5019116;28;19933;-70
2022/10/16 13:13:51;;;;;;;;;;;15.20;99.90;;;;;;5006746;28;20363;-69
2022/10/16 13:16:21;;;;;;;;;;;15.30;99.90;;;;;;5012974;28;20020;-70
2022/10/16 13:18:47;;;;;;;;;;;15.30;99.90;;;;;;5009230;28;19934;-71
2022/10/16 13:21:29;;;;;;;;;;;15.30;99.90;;;;;;5010253;28;20017;-69
2022/10/16 13:24:18;;;;;;;;;;;15.30;99.90;;;;;;5006899;28;20371;-70
2022/10/16 13:26:44;;;;;;;;;;;15.30;99.90;;;;;;5015400;28;20363;-67
2022/10/16 13:29:13;;;;;;;;;;;15.20;99.90;;;;;;5019088;28;19932;-68
2022/10/16 13:31:40;;;;;;;;;;;15.20;99.90;;;;;;5021762;28;19992;-67
2022/10/16 13:34:12;;;;;;;;;;;15.10;99.90;;;;;;5013847;28;19934;-69
2022/10/16 13:36:43;;;;;;;;;;;15.10;99.90;;;;;;5019633;28;20446;-68
2022/10/16 13:39:10;;;;;;;;;;;15.10;99.90;;;;;;5009899;28;19929;-68
2022/10/16 13:41:37;;;;;;;;;;;15.00;99.90;;;;;;5016907;28;20027;-71
2022/10/16 13:44:05;;;;;;;;;;;14.90;99.90;;;;;;5011025;28;19961;-72
2022/10/16 13:46:34;;;;;;;;;;;14.90;99.90;;;;;;5012118;28;19929;-68
2022/10/16 13:49:02;;;;;;;;;;;14.90;99.90;;;;;;5012673;28;20240;-68
2022/10/16 13:51:30;;;;;;;;;;;15.00;99.90;;;;;;5017679;28;20020;-68
2022/10/16 13:53:57;;;;;;;;;;;15.00;99.90;;;;;;5015746;28;20019;-68
2022/10/16 13:56:28;;;;;;;;;;;15.10;99.90;;;;;;5018253;28;19976;-68
2022/10/16 13:59:01;;;;;;;;;;;15.10;99.90;;;;;;5021322;28;20031;-71
2022/10/16 14:01:29;;;;;;;;;;;15.00;99.90;;;;;;5021335;28;20433;-70
2022/10/16 14:04:03;;;;;;;;;;;14.90;99.90;;;;;;5014501;28;19943;-68
2022/10/16 14:06:30;;;;;;;;;;;14.90;99.90;;;;;;5010783;28;19929;-71
2022/10/16 14:09:20;;;;;;;;;;;14.80;99.90;;;;;;5012312;28;19932;-69
2022/10/16 14:11:51;;;;;;;;;;;14.70;99.90;;;;;;5016966;28;19929;-70
2022/10/16 14:14:19;;;;;;;;;;;14.70;99.90;;;;;;5009232;28;19926;-71
2022/10/16 14:16:46;;;;;;;;;;;14.70;99.90;;;;;;5017065;28;19929;-71
2022/10/16 14:19:17;;;;;;;;;;;14.60;99.90;;;;;;5018460;28;19925;-70
2022/10/16 14:21:44;;;;;;;;;;;14.60;99.90;;;;;;5014286;28;20067;-70
2022/10/16 14:24:12;;;;;;;;;;;14.60;99.90;;;;;;5008667;28;19926;-69
2022/10/16 14:26:43;;;;;;;;;;;14.50;99.90;;;;;;5016609;28;19925;-68
2022/10/16 14:29:19;;;;;;;;;;;14.50;99.90;;;;;;5018848;28;19971;-69
2022/10/16 14:31:57;;;;;;;;;;;14.40;99.90;;;;;;5019668;28;19955;-69
2022/10/16 14:34:24;;;;;;;;;;;14.40;99.90;;;;;;5020587;28;19932;-71